マンチェスター の空港の天気 - METARとTAF

マンチェスター空港 ( EGCC / MAN ) - イギリス マンチェスター
飛行場実況気象(Metar)
観測時間07/07 14:20 BST (07/07 13:20 UTC)
風向・風速南西 4m/s
視程6000m
天気現象弱い雨
全天の4割程度の雲 雲底高度 370m
全天の8割程度の雲 雲底高度 550m
全天の8割程度の雲 雲底高度 1310m
気温13℃
湿度88%
気圧1018hPa
METAREGCC 071320Z AUTO 23008KT 6000 -RA SCT012 BKN018 BKN043 13/11 Q1018 TEMPO 4000 RA BKN008
過去の天気等 Google飛行場航空写真 Wunderground天気予報

過去48時間のMETAR

飛行場予報(TAF)
発表時間: 7/07 13:05 BST (7/07 12:05 UTC)
予報対象時間: 7日13時 BST ~ 8日19時 BST
風向・風速西 4m/s
視程10km以上
全天の4割程度の雲 雲底高度 1220m
7日13時 BST ~ 8日6時 BST に一時的に
視程7000m
天気現象
7日13時 BST ~ 7日19時 BST に 確率 30% で一時的に
視程3000m
天気現象強い雨
全天の8割程度の雲 雲底高度 270m
7日19時 BST ~ 7日22時 BST に徐々に
全天の8割程度の雲 雲底高度 300m
7日19時 BST ~ 8日7時 BST に 確率 30% で一時的に
視程3000m
天気現象もや 雨霧雨
全天の8割程度の雲 雲底高度 120m
8日7時 BST ~ 8日19時 BST に一時的に
全天の4割程度の雲 雲底高度 300m
8日16時 BST ~ 8日19時 BST に一時的に
視程7000m
天気現象
TAF AMD EGCC 071205Z 0712/0818 28007KT 9999 SCT040
TEMPO 0712/0805 7000 RA
PROB30 TEMPO 0712/0718 3000 +RA BKN009
BECMG 0718/0721 BKN010
PROB30 TEMPO 0718/0806 3000 BR RADZ BKN004
TEMPO 0806/0818 SCT010
TEMPO 0815/0818 7000 RA